• Join FlightAware (Why Join?)
  • Login
  • US Flag 
12:13AM EDT


 

Airport Tracker/Info


-or-


 

Live Flight TrackerFlight Track Log ✈ SWA3135 ✈ 31-May-2013 ✈ KLGA - KMKE

Flight Track Log - Related Links

Times and Time Zones

All times are in EDT time to prevent confusion due to time zone crossing. See the SWA3135 flight status page for this flight to view local times or setup timezone preferences in your user account.

Time Position Orientation Groundspeed Altitude Reporting Facility
EDT Latitude Longitude Course Direction KTS MPH feet Rate Location/Type
07:39PM 40.7667 -73.8167 57° Northeast 202 232 1,500  Level New York TRACON
07:40PM 40.8000 -73.7500 57° Northeast 237 273 4,800 3,180 Climbing New York TRACON
07:41PM 40.8833 -73.7500 360° North 291 335 8,300 1,980 Climbing New York TRACON
07:42PM 40.9333 -73.8333 308° West 280 322 9,000 360 Climbing New York TRACON
07:43PM 40.9500 -73.9167 285° West 280 322 9,000 1,020 Level New York TRACON
07:44PM 40.9833 -74.0167 294° West 282 325 11,000 2,400 Climbing New York TRACON
07:45PM 41.0000 -74.1333 281° West 342 394 13,900 1,680 Climbing New York TRACON
07:47PM 41.0556 -74.3400 290° West 371 427 15,900 720 Climbing New York Center
07:48PM 41.0867 -74.4764 287° West 364 419 16,000  Climbing New York Center
07:49PM 41.1164 -74.5964 288° West 370 426 16,000 480 Level New York Center
07:50PM 41.1575 -74.7394 291° West 375 432 17,000 1,740 Climbing New York Center
07:51PM 41.2058 -74.8469 301° West 382 440 19,500 2,460 Climbing New York Center
07:52PM 41.2614 -74.9856 298° West 402 463 22,000 2,460 Climbing New York Center
07:53PM 41.3208 -75.1247 300° West 417 480 24,500 2,280 Climbing New York Center
07:54PM 41.3822 -75.2669 300° West 431 496 26,700 1,980 Climbing New York Center
07:55PM 41.4511 -75.4236 300° West 442 509 28,500 2,460 Climbing New York Center
07:56PM 41.4978 -75.5600 295° West 447 514 31,600 2,580 Climbing New York Center
07:57PM 41.5414 -75.7128 291° West 442 509 33,800 1,920 Climbing New York Center
07:58PM 41.5850 -75.8628 291° West 442 509 35,600 1,980 Climbing New York Center
07:59PM 41.6319 -76.0303 291° West 442 509 37,700 1,860 Climbing New York Center
08:00PM 41.6772 -76.1808 292° West 437 503 39,300 1,080 Climbing New York Center
08:01PM 41.7164 -76.3286 290° West 437 503 40,000 300 Climbing New York Center
08:02PM 41.7569 -76.4794 290° West 437 503 40,000  Level New York Center
08:03PM 41.7922 -76.6131 290° West 437 503 40,000  Level New York Center
08:06PM 41.9492 -77.1797 291° West 425 489 40,000  Level Cleveland Center
08:07PM 41.9889 -77.3283 290° West 420 483 40,000  Level Cleveland Center
08:08PM 42.0283 -77.4744 290° West 420 483 40,000  Level Cleveland Center
08:09PM 42.0678 -77.6236 290° West 420 483 40,000  Level Cleveland Center
08:10PM 42.1117 -77.7869 290° West 415 478 40,000  Level Cleveland Center
08:11PM 42.1481 -77.9253 290° West 421 484 40,000  Level Cleveland Center
08:12PM 42.1850 -78.0750 288° West 421 484 40,000  Level Cleveland Center
08:13PM 42.2256 -78.2250 290° West 421 484 40,000  Level Cleveland Center
08:14PM 42.2639 -78.3750 289° West 421 484 40,000  Level Cleveland Center
08:15PM 42.3042 -78.5253 290° West 421 484 40,000  Level Cleveland Center
08:16PM 42.3425 -78.6786 289° West 421 484 40,000  Level Cleveland Center
08:17PM 42.3781 -78.8292 288° West 421 484 40,000  Level Cleveland Center
08:18PM 42.4178 -78.9800 290° West 421 484 40,000  Level Cleveland Center
08:19PM 42.4553 -79.1367 288° West 421 484 40,000  Level Cleveland Center
08:20PM 42.4928 -79.3075 287° West 429 494 40,000  Level Cleveland Center
08:21PM 42.5006 -79.4625 274° West 442 509 40,000  Level Cleveland Center
08:22PM 42.5083 -79.6369 274° West 442 509 40,000  Level Cleveland Center
08:23PM 42.5181 -79.8028 275° West 442 509 40,000  Level Cleveland Center
08:24PM 42.5275 -79.9689 274° West 442 509 40,000  Level Cleveland Center
08:25PM 42.5322 -80.1325 272° West 442 509 40,000  Level Cleveland Center
08:26PM 42.5369 -80.2958 272° West 437 503 40,000  Level Cleveland Center
08:27PM 42.5436 -80.4592 273° West 443 510 40,000  Level Cleveland Center
08:28PM 42.5519 -80.6225 274° West 438 504 40,000  Level Cleveland Center
08:29PM 42.5558 -80.7833 272° West 439 505 40,000  Level Cleveland Center
08:30PM 42.5617 -80.9439 273° West 439 505 40,000  Level Cleveland Center
08:31PM 42.5675 -81.0878 273° West 439 505 40,000  Level Cleveland Center
08:32PM 42.5750 -81.2458 274° West 433 498 40,000  Level Cleveland Center
08:33PM 42.5781 -81.4008 272° West 424 488 40,000  Level Cleveland Center
08:34PM 42.6039 -81.5619 282° West 424 488 40,000  Level Cleveland Center
08:35PM 42.6297 -81.7092 283° West 418 481 40,000  Level Cleveland Center
08:36PM 42.6592 -81.8792 283° West 412 474 40,000  Level Cleveland Center
08:37PM 42.6844 -82.0350 282° West 412 474 40,000  Level Cleveland Center
08:38PM 42.7117 -82.1853 284° West 412 474 40,000  Level Cleveland Center
08:39PM 42.7364 -82.3414 282° West 412 474 40,000  Level Cleveland Center
08:40PM 42.7633 -82.4919 284° West 412 474 40,000  Level Cleveland Center
08:41PM 42.7897 -82.6514 283° West 418 481 40,000  Level Cleveland Center
08:42PM 42.8139 -82.8050 282° West 418 481 40,000  Level Cleveland Center
08:43PM 42.8419 -82.9644 284° West 423 487 40,000  Level Cleveland Center
08:44PM 42.8678 -83.1186 283° West 423 487 40,000  Level Cleveland Center
08:45PM 42.8914 -83.2783 281° West 423 487 40,000  Level Cleveland Center
08:46PM 42.9147 -83.4322 282° West 428 493 40,000  Level Cleveland Center
08:47PM 42.9400 -83.5922 282° West 428 493 40,000  Level Cleveland Center
08:48PM 42.9650 -83.7497 282° West 428 493 40,000 -300 Level Cleveland Center
08:49PM 42.9814 -83.9067 278° West 428 493 39,400 -840 Descending Cleveland Center
08:51PM 43.0033 -84.1436 277° West 398 458 37,800 -960 Descending Chicago Center
08:52PM 43.0194 -84.2994 278° West 409 471 36,900 -840 Descending Chicago Center
08:53PM 43.0339 -84.4608 277° West 425 489 36,100 -480 Descending Chicago Center
08:54PM 43.0517 -84.6522 277° West 425 489 36,000 -60 Descending Chicago Center
08:55PM 43.0667 -84.8056 278° West 412 474 36,000  Level Chicago Center
08:56PM 43.0794 -84.9575 277° West 404 465 36,000  Level Chicago Center
08:57PM 43.0925 -85.1078 277° West 400 460 36,000  Level Chicago Center
08:58PM 43.1056 -85.2578 277° West 400 460 36,000  Level Chicago Center
08:59PM 43.1189 -85.4061 277° West 396 456 36,000 -600 Level Chicago Center
09:00PM 43.1333 -85.5867 276° West 399 459 34,800 -1,020 Descending Chicago Center
09:01PM 43.1469 -85.7403 277° West 407 468 33,900 -960 Descending Chicago Center
09:02PM 43.1597 -85.8953 277° West 414 476 32,900 -1,380 Descending Chicago Center
09:03PM 43.1706 -86.0483 276° West 417 480 31,100 -2,460 Descending Chicago Center
09:05PM 43.1675 -86.2283 269° West 404 465 27,900 -2,760 Descending Chicago Center
09:06PM 43.1647 -86.3742 269° West 390 449 25,400 -2,400 Descending Chicago Center
09:07PM 43.1625 -86.5167 269° West 379 436 23,000 -2,280 Descending Chicago Center
09:08PM 43.1597 -86.6500 268° West 352 405 20,700 -2,220 Descending Chicago Center
09:09PM 43.1564 -86.7772 268° West 338 389 18,500 -2,160 Descending Chicago Center
09:10PM 43.1556 -86.9017 270° West 328 377 16,300 -2,220 Descending Chicago Center
09:11PM 43.1511 -87.0447 268° West 317 365 14,000 -1,680 Descending Chicago Center
09:12PM 43.1486 -87.1469 268° West 271 312 12,900 -2,040 Descending Chicago Center
09:13PM 43.1100 -87.2256 236° Southwest 273 314 9,800 -2,760 Descending Chicago Center
09:14PM 43.0806 -87.3128 245° Southwest 257 296 7,200 -2,520 Descending Chicago Center
09:15PM 43.0600 -87.4097 254° West 249 287 4,600 -2,280 Descending Chicago Center
09:16PM 43.0403 -87.4950 252° West 238 274 2,500 -1,020 Descending Chicago Center
09:17PM 43.0183 -87.5822 251° West 240 276 2,500  Level Chicago Center
09:18PM 42.9975 -87.6708 252° West 243 280 2,500  Level Chicago Center
09:19PM 42.9789 -87.7533 253° West 211 243 2,500 -300 Level Chicago Center
09:20PM 42.9656 -87.8075 251° West 170 196 2,000 -600 Descending Chicago Center
09:21PM 42.9553 -87.8472 251° West 150 173 1,300 -720 Descending Chicago Center
09:23PM 42.9333 -87.8833 236° Southwest  Level FlightAware Approximate
09:30PM 42.9469 -87.8971 236° Southwest  Level Estimated